Aviation Digital Data Service (ADDS)

Output produced by TAFs form (0933 UTC 24 October 2014)
found at http://www.aviationweather.gov/adds/tafs/
 
KRIC 240540Z 2406/2506 29007KT P6SM SKC 
     FM241400 32012KT P6SM SCT040 
     FM242000 28007KT P6SM SKC